Terminal Aerodrome Forecast
Issued by NWS Paducah, KY

Home | Current Version | Previous Version | Text Only | Print | Product List | Glossary On
Versions: 1 2 3 4 5 6 7 8 9 10 11 12 13 14 15 16 17 18
000
FTUS43 KPAH 261720
TAFEVV
TAF
KEVV 261720Z 2618/2718 34010KT P6SM SCT015 OVC035
     FM261900 35012G18KT 4SM -SN BR OVC015
     FM262100 36012G18KT P6SM OVC015
     FM270100 36007KT P6SM OVC020
     FM270500 35006KT P6SM SCT020 BKN035
     FM271500 36007KT P6SM BKN020=

USA.gov is the U.S. government's official web portal to all federal, state and local government web resources and services.